Time;durP1;ratioP1;P1;durP2;ratioP2;P2;SDS_P1;SDS_P2;PMS_P1;PMS_P2;Temp;Humidity;BMP_temperature;BMP_pressure;BME280_temperature;BME280_humidity;BME280_pressure;Samples;Min_cycle;Max_cycle;Signal;HPM_P1;HPM_P2
2023/07/15 00:02:28;;;;;;;1.37;1.27;;;;;;;;;;5887827;28;10000394;-64
2023/07/15 00:05:28;;;;;;;;;;;;;;;;;;6236607;28;20108;-66
2023/07/15 00:08:30;;;;;;;1.63;1.30;;;;;;;;;;6234043;28;19909;-63
2023/07/15 00:11:37;;;;;;;2.70;1.20;;;;;;;;;;6238016;28;20349;-65
2023/07/15 00:14:38;;;;;;;2.80;1.73;;;;;;;;;;6251673;28;20045;-65
2023/07/15 00:17:39;;;;;;;;;;;;;;;;;;6235732;28;20082;-61
2023/07/15 00:20:39;;;;;;;1.20;1.05;;;;;;;;;;6234805;28;20023;-64
2023/07/15 00:23:40;;;;;;;1.60;1.47;;;;;;;;;;6234562;28;20025;-64
2023/07/15 00:26:40;;;;;;;2.50;1.42;;;;;;;;;;6234628;28;20471;-66
2023/07/15 00:29:41;;;;;;;;;;;;;;;;;;6238018;28;20025;-67
2023/07/15 00:32:41;;;;;;;1.55;1.30;;;;;;;;;;6234836;28;19913;-65
2023/07/15 00:35:42;;;;;;;;;;;;;;;;;;6238396;28;20100;-65
2023/07/15 00:38:42;;;;;;;1.58;1.30;;;;;;;;;;6235783;28;19909;-66
2023/07/15 00:41:42;;;;;;;1.45;1.25;;;;;;;;;;6232342;28;20486;-65
2023/07/15 00:44:42;;;;;;;1.50;1.40;;;;;;;;;;6236490;28;20030;-66
2023/07/15 00:47:47;;;;;;;2.13;1.38;;;;;;;;;;6233614;28;20101;-66
2023/07/15 00:50:48;;;;;;;1.98;1.20;;;;;;;;;;6237210;28;20021;-65
2023/07/15 00:53:49;;;;;;;1.60;1.50;;;;;;;;;;6228592;28;20044;-65
2023/07/15 00:56:49;;;;;;;;;;;;;;;;;;6231577;28;20343;-64
2023/07/15 00:59:52;;;;;;;3.10;1.13;;;;;;;;;;6230412;28;19932;-63
2023/07/15 01:02:52;;;;;;;2.47;1.30;;;;;;;;;;6228835;28;20032;-65
2023/07/15 01:05:52;;;;;;;2.65;1.60;;;;;;;;;;6227485;28;20029;-69
2023/07/15 01:08:53;;;;;;;4.10;1.40;;;;;;;;;;6228154;28;20057;-64
2023/07/15 01:11:54;;;;;;;2.87;1.27;;;;;;;;;;6225715;28;20021;-64
2023/07/15 01:14:54;;;;;;;1.45;1.23;;;;;;;;;;6229616;28;20152;-61
2023/07/15 01:17:54;;;;;;;;;;;;;;;;;;6242401;28;20032;-63
2023/07/15 01:20:58;;;;;;;1.10;1.00;;;;;;;;;;6252993;28;19909;-65
2023/07/15 01:23:58;;;;;;;2.17;1.10;;;;;;;;;;6234642;28;20397;-63
2023/07/15 01:27:01;;;;;;;2.10;1.30;;;;;;;;;;6232937;28;20029;-68
2023/07/15 01:30:01;;;;;;;1.48;1.10;;;;;;;;;;6228667;28;20033;-65
2023/07/15 01:33:01;;;;;;;1.83;1.40;;;;;;;;;;6226645;28;20163;-66
2023/07/15 01:36:04;;;;;;;1.50;1.20;;;;;;;;;;6227449;28;20407;-65
2023/07/15 01:39:06;;;;;;;2.60;1.15;;;;;;;;;;6226476;28;20024;-66
2023/07/15 01:42:07;;;;;;;1.85;1.27;;;;;;;;;;6229905;28;20029;-64
2023/07/15 01:45:10;;;;;;;1.60;1.23;;;;;;;;;;6229645;28;20022;-65
2023/07/15 01:48:10;;;;;;;2.10;1.27;;;;;;;;;;6228398;28;20686;-63
2023/07/15 01:51:10;;;;;;;1.30;1.20;;;;;;;;;;6228673;28;20033;-64
2023/07/15 01:54:11;;;;;;;2.17;1.37;;;;;;;;;;6230801;28;20108;-64
2023/07/15 01:57:11;;;;;;;1.30;1.20;;;;;;;;;;6229382;28;20111;-64
2023/07/15 02:00:16;;;;;;;1.87;1.17;;;;;;;;;;6228000;28;20283;-65
2023/07/15 02:03:16;;;;;;;1.73;1.30;;;;;;;;;;6230205;28;20112;-64
2023/07/15 02:06:16;;;;;;;1.23;1.13;;;;;;;;;;6231055;28;20486;-66
2023/07/15 02:09:16;;;;;;;1.90;1.40;;;;;;;;;;6228040;28;20444;-66
2023/07/15 02:12:17;;;;;;;1.47;1.03;;;;;;;;;;6230869;28;20021;-66
2023/07/15 02:15:17;;;;;;;1.10;0.90;;;;;;;;;;6228549;28;20465;-64
2023/07/15 02:18:17;;;;;;;1.15;1.05;;;;;;;;;;6231259;28;20101;-63
2023/07/15 02:21:19;;;;;;;1.87;1.20;;;;;;;;;;6230552;28;20036;-67
2023/07/15 02:24:19;;;;;;;2.17;1.27;;;;;;;;;;6226420;28;20052;-65
2023/07/15 02:27:19;;;;;;;3.77;1.40;;;;;;;;;;6228462;28;20041;-65
2023/07/15 02:30:20;;;;;;;1.60;1.33;;;;;;;;;;6227133;28;20080;-65
2023/07/15 02:33:20;;;;;;;1.63;1.37;;;;;;;;;;6230026;28;20279;-64
2023/07/15 02:36:20;;;;;;;2.40;1.43;;;;;;;;;;6229513;28;20067;-62
2023/07/15 02:39:20;;;;;;;1.73;1.30;;;;;;;;;;6231183;28;20052;-63
2023/07/15 02:42:21;;;;;;;1.87;1.50;;;;;;;;;;6230976;28;20017;-68
2023/07/15 02:45:21;;;;;;;2.03;1.30;;;;;;;;;;6238442;28;20021;-65
2023/07/15 02:48:21;;;;;;;2.17;1.50;;;;;;;;;;6238950;28;20096;-65
2023/07/15 02:51:23;;;;;;;1.43;1.30;;;;;;;;;;6237530;28;20344;-63
2023/07/15 02:54:23;;;;;;;3.20;1.80;;;;;;;;;;6233394;28;20029;-65
2023/07/15 02:57:23;;;;;;;1.50;1.17;;;;;;;;;;6239226;28;20040;-65
2023/07/15 03:00:24;;;;;;;2.13;1.80;;;;;;;;;;6238503;28;20021;-62
2023/07/15 03:03:25;;;;;;;3.47;1.50;;;;;;;;;;6236810;28;20465;-64
2023/07/15 03:06:25;;;;;;;1.77;1.25;;;;;;;;;;6235304;28;20040;-65
2023/07/15 03:09:25;;;;;;;2.13;1.37;;;;;;;;;;6237273;28;20108;-65
2023/07/15 03:12:25;;;;;;;1.93;1.50;;;;;;;;;;6239178;28;20025;-65
2023/07/15 03:15:26;;;;;;;1.83;1.33;;;;;;;;;;6235039;28;20615;-65
2023/07/15 03:18:26;;;;;;;2.30;1.53;;;;;;;;;;6234486;28;20033;-65
2023/07/15 03:21:26;;;;;;;1.50;1.20;;;;;;;;;;6231435;28;20025;-64
2023/07/15 03:24:26;;;;;;;1.30;1.20;;;;;;;;;;6232279;28;20037;-64
2023/07/15 03:27:27;;;;;;;2.90;1.50;;;;;;;;;;6233424;28;20033;-65
2023/07/15 03:30:27;;;;;;;2.33;1.30;;;;;;;;;;6237893;28;20080;-62
2023/07/15 03:33:27;;;;;;;1.30;1.20;;;;;;;;;;6245336;28;20009;-65
2023/07/15 03:36:27;;;;;;;1.67;1.30;;;;;;;;;;6245299;28;20047;-67
2023/07/15 03:39:27;;;;;;;1.17;1.07;;;;;;;;;;6243453;28;20021;-67
2023/07/15 03:42:28;;;;;;;1.63;1.40;;;;;;;;;;6231250;28;20398;-66
2023/07/15 03:45:29;;;;;;;1.20;1.10;;;;;;;;;;6231132;28;20496;-64
2023/07/15 03:48:29;;;;;;;1.92;1.38;;;;;;;;;;6231465;28;20029;-65
2023/07/15 03:51:30;;;;;;;1.43;1.23;;;;;;;;;;6231401;28;20110;-64
2023/07/15 03:54:30;;;;;;;2.20;1.40;;;;;;;;;;6229840;28;20022;-66
2023/07/15 03:57:30;;;;;;;2.15;1.50;;;;;;;;;;6230721;28;20021;-64
2023/07/15 04:00:30;;;;;;;2.27;1.50;;;;;;;;;;6234087;28;20727;-65
2023/07/15 04:03:31;;;;;;;1.40;1.30;;;;;;;;;;6228386;28;20367;-66
2023/07/15 04:06:31;;;;;;;1.63;1.37;;;;;;;;;;6245098;28;22348;-65
2023/07/15 04:09:32;;;;;;;1.50;1.33;;;;;;;;;;6231236;28;20546;-66
2023/07/15 04:12:32;;;;;;;1.70;1.30;;;;;;;;;;6242075;28;20719;-64
2023/07/15 04:15:32;;;;;;;2.27;1.60;;;;;;;;;;6226329;28;20167;-61
2023/07/15 04:18:32;;;;;;;2.33;1.30;;;;;;;;;;6230871;28;20049;-67
2023/07/15 04:21:33;;;;;;;1.90;1.40;;;;;;;;;;6230900;28;20703;-64
2023/07/15 04:24:33;;;;;;;1.53;1.40;;;;;;;;;;6228203;28;20028;-64
2023/07/15 04:27:34;;;;;;;2.33;1.70;;;;;;;;;;6231216;28;20025;-65
2023/07/15 04:30:35;;;;;;;1.30;1.20;;;;;;;;;;6226022;28;20093;-64
2023/07/15 04:33:35;;;;;;;1.77;1.50;;;;;;;;;;6233684;28;20091;-64
2023/07/15 04:36:35;;;;;;;1.70;1.60;;;;;;;;;;6234397;28;20040;-64
2023/07/15 04:39:35;;;;;;;1.40;1.30;;;;;;;;;;6228619;28;20355;-63
2023/07/15 04:42:36;;;;;;;1.67;1.57;;;;;;;;;;6232163;28;20021;-65
2023/07/15 04:45:36;;;;;;;2.80;1.60;;;;;;;;;;6236648;28;20126;-65
2023/07/15 04:48:36;;;;;;;2.35;1.52;;;;;;;;;;6233145;28;20667;-63
2023/07/15 04:51:36;;;;;;;2.53;1.50;;;;;;;;;;6233171;28;20444;-67
2023/07/15 04:54:37;;;;;;;2.50;1.47;;;;;;;;;;6228589;28;20328;-65
2023/07/15 04:57:37;;;;;;;2.23;1.40;;;;;;;;;;6232222;28;20108;-64
2023/07/15 05:00:37;;;;;;;2.00;1.63;;;;;;;;;;6231128;28;20051;-66
2023/07/15 05:03:38;;;;;;;2.17;1.40;;;;;;;;;;6228608;28;20674;-64
2023/07/15 05:06:38;;;;;;;;;;;;;;;;;;6227890;28;20067;-64
2023/07/15 05:09:39;;;;;;;1.48;1.35;;;;;;;;;;6235342;28;19917;-63
2023/07/15 05:12:40;;;;;;;2.38;1.33;;;;;;;;;;6234338;28;20482;-65
2023/07/15 05:15:40;;;;;;;2.40;1.60;;;;;;;;;;6226901;28;20025;-64
2023/07/15 05:18:40;;;;;;;;;;;;;;;;;;6239344;28;20032;-64
2023/07/15 05:21:41;;;;;;;1.80;1.25;;;;;;;;;;6227977;28;19943;-64
2023/07/15 05:24:41;;;;;;;;;;;;;;;;;;6233290;28;20036;-65
2023/07/15 05:27:41;;;;;;;2.00;1.13;;;;;;;;;;6238426;28;19987;-65
2023/07/15 05:30:41;;;;;;;;;;;;;;;;;;6236393;28;20025;-64
2023/07/15 05:33:44;;;;;;;1.45;1.30;;;;;;;;;;6224699;28;19914;-64
2023/07/15 05:36:44;;;;;;;2.13;1.40;;;;;;;;;;6232398;28;20029;-63
2023/07/15 05:39:44;;;;;;;;;;;;;;;;;;6239353;28;20048;-62
2023/07/15 05:42:45;;;;;;;2.67;1.77;;;;;;;;;;6231959;28;19912;-64
2023/07/15 05:45:45;;;;;;;;;;;;;;;;;;6229662;28;20362;-63
2023/07/15 05:48:46;;;;;;;2.50;2.00;;;;;;;;;;6235145;28;19916;-63
2023/07/15 05:51:46;;;;;;;;;;;;;;;;;;6240702;28;20022;-64
2023/07/15 05:54:46;;;;;;;1.65;1.55;;;;;;;;;;6250103;28;19986;-65
2023/07/15 05:57:46;;;;;;;;;;;;;;;;;;6231434;28;20044;-67
2023/07/15 06:00:56;;;;;;;1.70;1.30;;;;;;;;;;6228344;28;20062;-68
2023/07/15 06:03:58;;;;;;;1.70;1.40;;;;;;;;;;6223314;28;20021;-68
2023/07/15 06:06:59;;;;;;;1.90;1.33;;;;;;;;;;6226243;28;20310;-68
2023/07/15 06:09:59;;;;;;;;;;;;;;;;;;6220541;28;20033;-67
2023/07/15 06:12:59;;;;;;;1.80;1.20;;;;;;;;;;6223534;28;19917;-69
2023/07/15 06:15:59;;;;;;;1.60;1.50;;;;;;;;;;6224117;28;20041;-68
2023/07/15 06:18:59;;;;;;;1.63;1.33;;;;;;;;;;6230799;28;20288;-67
2023/07/15 06:22:00;;;;;;;1.67;1.57;;;;;;;;;;6229609;28;20665;-68
2023/07/15 06:25:00;;;;;;;1.83;1.30;;;;;;;;;;6235953;28;20834;-66
2023/07/15 06:28:00;;;;;;;2.75;1.35;;;;;;;;;;6223733;28;20033;-68
2023/07/15 06:31:01;;;;;;;2.50;1.40;;;;;;;;;;6234809;28;20053;-68
2023/07/15 06:34:01;;;;;;;1.38;1.27;;;;;;;;;;6232689;28;20025;-68
2023/07/15 06:37:02;;;;;;;1.37;1.27;;;;;;;;;;6226919;28;20104;-67
2023/07/15 06:40:03;;;;;;;2.17;1.50;;;;;;;;;;6231452;28;20334;-68
2023/07/15 06:43:04;;;;;;;2.17;1.65;;;;;;;;;;6223218;28;20024;-67
2023/07/15 06:46:05;;;;;;;1.50;1.40;;;;;;;;;;6228885;28;20520;-66
2023/07/15 06:49:06;;;;;;;2.20;1.52;;;;;;;;;;6228389;28;20295;-67
2023/07/15 06:52:06;;;;;;;3.33;1.60;;;;;;;;;;6228058;28;20091;-69
2023/07/15 06:55:06;;;;;;;2.00;1.47;;;;;;;;;;6232320;28;20299;-69
2023/07/15 06:58:06;;;;;;;3.92;1.58;;;;;;;;;;6233937;28;20680;-68
2023/07/15 07:01:07;;;;;;;1.50;1.40;;;;;;;;;;6227812;28;20038;-69
2023/07/15 07:04:07;;;;;;;1.80;1.70;;;;;;;;;;6226017;28;20103;-70
2023/07/15 07:07:07;;;;;;;2.77;1.80;;;;;;;;;;6228429;28;20038;-70
2023/07/15 07:10:08;;;;;;;2.63;1.37;;;;;;;;;;6230649;28;20308;-70
2023/07/15 07:13:08;;;;;;;2.08;1.40;;;;;;;;;;6225824;28;20083;-67
2023/07/15 07:16:08;;;;;;;1.90;1.50;;;;;;;;;;6221028;28;20057;-67
2023/07/15 07:19:08;;;;;;;1.88;1.67;;;;;;;;;;5533073;28;10000809;-69
2023/07/15 07:22:09;;;;;;;2.00;1.80;;;;;;;;;;6223098;28;20652;-67
2023/07/15 07:25:09;;;;;;;2.40;1.47;;;;;;;;;;6229220;28;20630;-68
2023/07/15 07:28:09;;;;;;;1.55;1.45;;;;;;;;;;6240842;28;20288;-67
2023/07/15 07:31:11;;;;;;;1.90;1.65;;;;;;;;;;6242332;28;20049;-68
2023/07/15 07:34:11;;;;;;;2.10;1.90;;;;;;;;;;6226169;28;20037;-68
2023/07/15 07:37:11;;;;;;;3.17;1.80;;;;;;;;;;6229336;28;20013;-67
2023/07/15 07:40:11;;;;;;;4.10;2.20;;;;;;;;;;6238126;28;20368;-67
2023/07/15 07:43:12;;;;;;;1.90;1.80;;;;;;;;;;6234232;28;20261;-68
2023/07/15 07:46:12;;;;;;;1.90;1.80;;;;;;;;;;6222747;28;20445;-67
2023/07/15 07:49:12;;;;;;;2.03;1.83;;;;;;;;;;6235253;28;20785;-67
2023/07/15 07:52:12;;;;;;;3.00;1.73;;;;;;;;;;6233436;28;20080;-67
2023/07/15 07:55:13;;;;;;;1.77;1.67;;;;;;;;;;6237758;28;20510;-67
2023/07/15 07:58:13;;;;;;;3.33;1.77;;;;;;;;;;6230002;28;20421;-70
2023/07/15 08:01:14;;;;;;;1.80;1.70;;;;;;;;;;6233190;28;20053;-69
2023/07/15 08:04:14;;;;;;;4.60;2.05;;;;;;;;;;6240028;28;20283;-68
2023/07/15 08:07:15;;;;;;;1.80;1.70;;;;;;;;;;6237437;28;20017;-68
2023/07/15 08:10:15;;;;;;;1.93;1.67;;;;;;;;;;6234554;28;20745;-69
2023/07/15 08:13:15;;;;;;;1.90;1.75;;;;;;;;;;6237311;28;20026;-69
2023/07/15 08:16:32;;;;;;;2.27;1.97;;;;;;;;;;6238760;28;20033;-68
2023/07/15 08:19:32;;;;;;;2.05;1.70;;;;;;;;;;6239768;28;20020;-69
2023/07/15 08:22:32;;;;;;;2.53;1.83;;;;;;;;;;6239012;28;20030;-69
2023/07/15 08:25:33;;;;;;;1.80;1.70;;;;;;;;;;6241582;28;20067;-71
2023/07/15 08:28:33;;;;;;;2.10;1.90;;;;;;;;;;6243695;28;20029;-69
2023/07/15 08:31:33;;;;;;;2.07;1.87;;;;;;;;;;6251086;28;20025;-70
2023/07/15 08:34:33;;;;;;;1.60;1.50;;;;;;;;;;6238689;28;20029;-69
2023/07/15 08:37:34;;;;;;;2.17;1.60;;;;;;;;;;6234158;28;20036;-70
2023/07/15 08:40:35;;;;;;;1.95;1.83;;;;;;;;;;6236669;28;20025;-70
2023/07/15 08:43:35;;;;;;;2.20;1.88;;;;;;;;;;6239474;28;20083;-68
2023/07/15 08:46:35;;;;;;;2.90;1.73;;;;;;;;;;6233130;28;20459;-69
2023/07/15 08:49:36;;;;;;;2.53;1.80;;;;;;;;;;6244940;28;20282;-69
2023/07/15 08:52:37;;;;;;;1.98;1.75;;;;;;;;;;6228488;28;20144;-70
2023/07/15 08:55:39;;;;;;;2.10;1.90;;;;;;;;;;6224827;28;20083;-70
2023/07/15 08:58:39;;;;;;;2.85;1.67;;;;;;;;;;6235821;28;20022;-70
2023/07/15 09:01:39;;;;;;;2.05;1.80;;;;;;;;;;6238958;28;20029;-70
2023/07/15 09:04:40;;;;;;;2.17;2.03;;;;;;;;;;6239812;28;20025;-70
2023/07/15 09:07:48;;;;;;;2.37;1.80;;;;;;;;;;6237817;28;20072;-70
2023/07/15 09:10:49;;;;;;;2.03;1.83;;;;;;;;;;6218847;28;20029;-70
2023/07/15 09:13:50;;;;;;;2.40;1.85;;;;;;;;;;6237414;28;20026;-71
2023/07/15 09:16:51;;;;;;;2.90;1.80;;;;;;;;;;6233742;28;20029;-69
2023/07/15 09:19:52;;;;;;;2.85;1.65;;;;;;;;;;5893218;28;10000320;-71
2023/07/15 09:22:56;;;;;;;1.75;1.65;;;;;;;;;;6231994;28;20091;-68
2023/07/15 09:26:00;;;;;;;1.77;1.55;;;;;;;;;;6243466;28;20179;-70
2023/07/15 09:29:00;;;;;;;2.20;2.00;;;;;;;;;;6232465;28;20033;-69
2023/07/15 09:32:00;;;;;;;2.20;2.00;;;;;;;;;;6235976;28;20028;-69
2023/07/15 09:35:00;;;;;;;1.97;1.77;;;;;;;;;;6221678;28;20083;-70
2023/07/15 09:38:01;;;;;;;2.93;1.83;;;;;;;;;;6234264;28;20026;-70
2023/07/15 09:41:02;;;;;;;1.93;1.73;;;;;;;;;;6232143;28;20030;-69
2023/07/15 09:44:02;;;;;;;2.30;2.10;;;;;;;;;;6236467;28;20216;-69
2023/07/15 09:47:03;;;;;;;1.70;1.60;;;;;;;;;;6233908;28;20026;-69
2023/07/15 09:50:03;;;;;;;2.10;1.80;;;;;;;;;;6229742;28;20033;-70
2023/07/15 09:53:04;;;;;;;3.05;1.80;;;;;;;;;;6236525;28;20025;-70
2023/07/15 09:56:05;;;;;;;1.90;1.70;;;;;;;;;;6238150;28;20022;-70
2023/07/15 09:59:16;;;;;;;2.47;2.13;;;;;;;;;;6237288;28;20037;-72
2023/07/15 10:02:16;;;;;;;1.88;1.63;;;;;;;;;;6237237;28;20018;-70
2023/07/15 10:05:18;;;;;;;1.70;1.60;;;;;;;;;;6228238;28;20487;-69
2023/07/15 10:08:19;;;;;;;2.17;1.88;;;;;;;;;;6221712;28;20029;-69
2023/07/15 10:11:19;;;;;;;3.10;1.85;;;;;;;;;;6229079;28;20309;-70
2023/07/15 10:14:20;;;;;;;2.57;1.73;;;;;;;;;;6236840;28;20072;-70
2023/07/15 10:17:20;;;;;;;2.35;2.10;;;;;;;;;;6229518;28;20248;-71
2023/07/15 10:20:22;;;;;;;1.70;1.60;;;;;;;;;;6234577;28;20029;-69
2023/07/15 10:23:26;;;;;;;1.77;1.67;;;;;;;;;;6230610;28;20044;-70
2023/07/15 10:26:26;;;;;;;2.75;2.03;;;;;;;;;;6238197;28;20167;-71
2023/07/15 10:29:29;;;;;;;2.97;1.63;;;;;;;;;;6231102;28;20033;-69
2023/07/15 10:32:29;;;;;;;1.90;1.80;;;;;;;;;;6236180;28;20044;-70
2023/07/15 10:35:34;;;;;;;2.20;1.77;;;;;;;;;;6257243;28;20034;-69
2023/07/15 10:38:34;;;;;;;4.68;2.00;;;;;;;;;;6236176;28;20022;-71
2023/07/15 10:41:45;;;;;;;2.08;1.70;;;;;;;;;;6238226;28;20394;-70
2023/07/15 10:44:51;;;;;;;2.15;1.73;;;;;;;;;;6239076;28;20158;-70
2023/07/15 10:47:51;;;;;;;1.70;1.60;;;;;;;;;;6231317;28;20054;-68
2023/07/15 10:50:52;;;;;;;1.53;1.43;;;;;;;;;;6238399;28;20025;-71
2023/07/15 10:53:52;;;;;;;2.70;1.80;;;;;;;;;;6242832;28;20029;-71
2023/07/15 10:56:53;;;;;;;3.43;1.63;;;;;;;;;;6244155;28;20075;-69
2023/07/15 10:59:53;;;;;;;2.03;1.92;;;;;;;;;;6226161;28;20025;-69
2023/07/15 11:02:53;;;;;;;2.03;1.83;;;;;;;;;;6241746;28;20744;-69
2023/07/15 11:05:54;;;;;;;2.10;1.60;;;;;;;;;;6238646;28;20399;-68
2023/07/15 11:08:55;;;;;;;2.83;1.88;;;;;;;;;;6250196;28;20036;-69
2023/07/15 11:11:55;;;;;;;2.40;1.70;;;;;;;;;;6239721;28;20500;-70
2023/07/15 11:14:55;;;;;;;2.00;1.60;;;;;;;;;;6240337;28;20027;-70
2023/07/15 11:17:55;;;;;;;1.70;1.57;;;;;;;;;;6255667;28;20115;-72
2023/07/15 11:20:57;;;;;;;1.77;1.67;;;;;;;;;;6249564;28;20053;-72
2023/07/15 11:23:57;;;;;;;2.25;1.80;;;;;;;;;;6240599;28;20029;-71
2023/07/15 11:27:01;;;;;;;2.47;1.50;;;;;;;;;;6242097;28;20038;-71
2023/07/15 11:30:01;;;;;;;2.15;1.88;;;;;;;;;;6250573;28;20392;-71
2023/07/15 11:33:03;;;;;;;1.50;1.40;;;;;;;;;;6246035;28;20025;-69
2023/07/15 11:36:03;;;;;;;1.73;1.63;;;;;;;;;;6237599;28;20532;-70
2023/07/15 11:39:06;;;;;;;1.97;1.67;;;;;;;;;;6245616;28;20025;-70
2023/07/15 11:42:07;;;;;;;1.70;1.60;;;;;;;;;;6227303;28;20304;-69
2023/07/15 11:45:08;;;;;;;2.13;1.92;;;;;;;;;;6231198;28;20025;-70
2023/07/15 11:48:09;;;;;;;1.98;1.67;;;;;;;;;;6233649;28;20029;-69
2023/07/15 11:51:09;;;;;;;2.78;1.75;;;;;;;;;;6238157;28;20417;-70
2023/07/15 11:54:11;;;;;;;1.70;1.60;;;;;;;;;;6238701;28;20024;-70
2023/07/15 11:57:11;;;;;;;2.22;1.73;;;;;;;;;;6238790;28;20025;-70
2023/07/15 12:00:25;;;;;;;1.87;1.77;;;;;;;;;;6240011;28;20022;-72
2023/07/15 12:03:26;;;;;;;1.90;1.75;;;;;;;;;;6242185;28;20030;-71
2023/07/15 12:06:27;;;;;;;1.90;1.80;;;;;;;;;;6243087;28;20029;-70
2023/07/15 12:09:28;;;;;;;2.47;1.58;;;;;;;;;;6244394;28;20102;-70
2023/07/15 12:12:28;;;;;;;2.13;2.00;;;;;;;;;;6235008;28;20470;-71
2023/07/15 12:15:28;;;;;;;2.17;2.07;;;;;;;;;;6233604;28;20018;-69
2023/07/15 12:18:28;;;;;;;2.73;1.80;;;;;;;;;;6239972;28;20025;-70
2023/07/15 12:21:29;;;;;;;2.33;1.60;;;;;;;;;;6231776;28;20477;-70
2023/07/15 12:24:29;;;;;;;1.88;1.77;;;;;;;;;;6230278;28;20441;-70
2023/07/15 12:27:30;;;;;;;1.83;1.73;;;;;;;;;;6242847;28;20037;-70
2023/07/15 12:30:30;;;;;;;1.60;1.50;;;;;;;;;;6237910;28;20067;-70
2023/07/15 12:33:31;;;;;;;2.50;2.10;;;;;;;;;;6234744;28;20366;-72
2023/07/15 12:36:31;;;;;;;3.07;1.73;;;;;;;;;;6243679;28;20045;-71
2023/07/15 12:39:32;;;;;;;1.80;1.70;;;;;;;;;;6229886;28;20024;-70
2023/07/15 12:42:32;;;;;;;1.60;1.50;;;;;;;;;;6235559;28;20080;-70
2023/07/15 12:45:32;;;;;;;1.90;1.80;;;;;;;;;;6237007;28;20421;-70
2023/07/15 12:48:33;;;;;;;1.80;1.70;;;;;;;;;;6231326;28;20018;-70
2023/07/15 12:51:33;;;;;;;2.17;1.83;;;;;;;;;;6237319;28;20430;-69
2023/07/15 12:54:34;;;;;;;1.90;1.80;;;;;;;;;;6241478;28;20113;-71
2023/07/15 12:57:34;;;;;;;2.30;2.10;;;;;;;;;;6234005;28;20033;-69
2023/07/15 13:00:34;;;;;;;2.17;2.07;;;;;;;;;;6236840;28;20022;-72
2023/07/15 13:03:34;;;;;;;2.40;2.13;;;;;;;;;;6244885;28;20087;-72
2023/07/15 13:06:35;;;;;;;2.40;1.90;;;;;;;;;;6241796;28;20017;-72
2023/07/15 13:09:35;;;;;;;2.27;2.17;;;;;;;;;;6236328;28;20336;-71
2023/07/15 13:12:35;;;;;;;2.20;2.10;;;;;;;;;;6259270;28;20094;-70
2023/07/15 13:15:35;;;;;;;4.30;2.60;;;;;;;;;;6230514;28;20045;-72
2023/07/15 13:18:36;;;;;;;2.37;2.27;;;;;;;;;;6234758;28;20040;-70
2023/07/15 13:21:36;;;;;;;2.17;2.07;;;;;;;;;;6246461;28;20021;-70
2023/07/15 13:24:36;;;;;;;2.33;2.07;;;;;;;;;;6234188;28;20030;-71
2023/07/15 13:27:37;;;;;;;2.97;2.10;;;;;;;;;;6234526;28;20079;-69
2023/07/15 13:30:38;;;;;;;4.47;1.98;;;;;;;;;;6245645;28;20018;-70
2023/07/15 13:33:38;;;;;;;2.50;2.30;;;;;;;;;;6236696;28;20374;-70
2023/07/15 13:36:39;;;;;;;4.13;2.20;;;;;;;;;;6231388;28;20419;-71
2023/07/15 13:39:42;;;;;;;2.63;2.33;;;;;;;;;;6242076;28;20459;-71
2023/07/15 13:42:42;;;;;;;2.22;2.13;;;;;;;;;;6234154;28;20432;-71
2023/07/15 13:45:42;;;;;;;1.80;1.70;;;;;;;;;;6229964;28;20063;-71
2023/07/15 13:48:43;;;;;;;2.13;2.03;;;;;;;;;;6239030;28;20026;-72
2023/07/15 13:51:43;;;;;;;2.43;2.17;;;;;;;;;;6229756;28;20042;-71
2023/07/15 13:54:43;;;;;;;2.93;2.30;;;;;;;;;;6234126;28;20350;-71
2023/07/15 13:57:44;;;;;;;2.43;2.33;;;;;;;;;;6244137;28;20450;-73
2023/07/15 14:00:44;;;;;;;2.65;2.50;;;;;;;;;;6237465;28;20038;-73
2023/07/15 14:03:44;;;;;;;2.27;2.17;;;;;;;;;;6236773;28;20057;-72
2023/07/15 14:06:48;;;;;;;2.90;2.70;;;;;;;;;;6237815;28;20105;-71
2023/07/15 14:09:48;;;;;;;2.63;2.42;;;;;;;;;;6259398;28;20021;-72
2023/07/15 14:12:48;;;;;;;2.73;2.53;;;;;;;;;;6232252;28;20021;-74
2023/07/15 14:15:49;;;;;;;2.63;2.53;;;;;;;;;;6231055;28;20018;-71
2023/07/15 14:18:49;;;;;;;2.47;2.38;;;;;;;;;;6234736;28;20064;-71
2023/07/15 14:21:49;;;;;;;2.50;2.30;;;;;;;;;;6243837;28;20022;-71
2023/07/15 14:24:49;;;;;;;2.73;2.53;;;;;;;;;;6252386;28;20032;-71
2023/07/15 14:27:50;;;;;;;3.00;2.60;;;;;;;;;;6249383;28;20044;-72
2023/07/15 14:30:50;;;;;;;2.60;2.40;;;;;;;;;;6231979;28;20091;-72
2023/07/15 14:33:53;;;;;;;2.90;2.60;;;;;;;;;;6237189;28;20013;-72
2023/07/15 14:36:54;;;;;;;3.10;2.90;;;;;;;;;;6237400;28;20022;-72
2023/07/15 14:39:54;;;;;;;2.97;2.70;;;;;;;;;;6247972;28;20580;-72
2023/07/15 14:42:54;;;;;;;2.93;2.63;;;;;;;;;;6244171;28;20057;-72
2023/07/15 14:45:54;;;;;;;2.53;2.37;;;;;;;;;;6247772;28;20053;-72
2023/07/15 14:48:55;;;;;;;2.90;2.70;;;;;;;;;;6233666;28;20045;-72
2023/07/15 14:51:55;;;;;;;2.77;2.57;;;;;;;;;;6239798;28;20018;-72
2023/07/15 14:54:55;;;;;;;2.77;2.57;;;;;;;;;;6231103;28;20026;-73
2023/07/15 14:57:55;;;;;;;2.17;2.07;;;;;;;;;;6235443;28;20061;-73
2023/07/15 15:00:56;;;;;;;2.40;2.20;;;;;;;;;;6246646;28;20104;-72
2023/07/15 15:03:56;;;;;;;2.40;2.13;;;;;;;;;;6239577;28;20018;-71
2023/07/15 15:06:56;;;;;;;2.40;2.20;;;;;;;;;;6240780;28;20025;-72
2023/07/15 15:09:57;;;;;;;2.30;2.10;;;;;;;;;;6246695;28;20363;-72
2023/07/15 15:12:57;;;;;;;2.20;2.10;;;;;;;;;;6230728;28;20490;-72
2023/07/15 15:15:57;;;;;;;4.50;2.40;;;;;;;;;;6245418;28;20032;-71
2023/07/15 15:18:58;;;;;;;2.50;2.30;;;;;;;;;;6236727;28;20394;-71
2023/07/15 15:21:58;;;;;;;2.40;2.20;;;;;;;;;;6230321;28;20390;-72
2023/07/15 15:24:58;;;;;;;4.03;2.00;;;;;;;;;;6241702;28;20022;-72
2023/07/15 15:27:58;;;;;;;2.37;2.17;;;;;;;;;;6224649;28;20022;-72
2023/07/15 15:30:59;;;;;;;3.07;2.20;;;;;;;;;;6246808;28;20025;-72
2023/07/15 15:34:00;;;;;;;1.90;1.80;;;;;;;;;;6242204;28;20385;-71
2023/07/15 15:37:00;;;;;;;4.20;2.17;;;;;;;;;;6237789;28;20022;-72
2023/07/15 15:40:00;;;;;;;1.90;1.80;;;;;;;;;;6226734;28;20084;-72
2023/07/15 15:43:00;;;;;;;2.07;1.80;;;;;;;;;;6240267;28;20096;-73
2023/07/15 15:46:01;;;;;;;2.77;1.80;;;;;;;;;;6233387;28;20264;-71
2023/07/15 15:49:04;;;;;;;1.88;1.77;;;;;;;;;;5900318;28;9999949;-72
2023/07/15 15:52:05;;;;;;;3.30;1.85;;;;;;;;;;6228052;28;20029;-71
2023/07/15 15:55:05;;;;;;;2.47;2.28;;;;;;;;;;6229853;28;20025;-71
2023/07/15 15:58:05;;;;;;;2.47;2.10;;;;;;;;;;6228476;28;20371;-70
2023/07/15 16:01:06;;;;;;;2.67;1.90;;;;;;;;;;6227861;28;20142;-72
2023/07/15 16:04:06;;;;;;;2.00;1.90;;;;;;;;;;6230404;28;20851;-72
2023/07/15 16:07:06;;;;;;;3.67;2.13;;;;;;;;;;6232271;28;20502;-71
2023/07/15 16:10:07;;;;;;;4.10;2.33;;;;;;;;;;6236402;28;20029;-72
2023/07/15 16:13:07;;;;;;;3.30;1.98;;;;;;;;;;6231547;28;20021;-71
2023/07/15 16:16:07;;;;;;;3.50;1.97;;;;;;;;;;6229368;28;20329;-70
2023/07/15 16:19:09;;;;;;;2.90;2.17;;;;;;;;;;6244939;28;20132;-70
2023/07/15 16:22:09;;;;;;;2.30;2.03;;;;;;;;;;6238214;28;20816;-72
2023/07/15 16:25:10;;;;;;;2.17;1.90;;;;;;;;;;6227677;28;20039;-71
2023/07/15 16:28:10;;;;;;;2.10;1.80;;;;;;;;;;6227534;28;20021;-70
2023/07/15 16:31:10;;;;;;;2.53;1.90;;;;;;;;;;6232953;28;20029;-72
2023/07/15 16:34:11;;;;;;;2.53;1.67;;;;;;;;;;6225777;28;20352;-70
2023/07/15 16:37:11;;;;;;;5.70;1.85;;;;;;;;;;6228184;28;20056;-70
2023/07/15 16:40:11;;;;;;;2.20;1.90;;;;;;;;;;6230695;28;20029;-70
2023/07/15 16:43:11;;;;;;;2.95;1.95;;;;;;;;;;6228344;28;20033;-71
2023/07/15 16:46:12;;;;;;;2.60;2.10;;;;;;;;;;6231818;28;20081;-69
2023/07/15 16:49:12;;;;;;;2.77;2.07;;;;;;;;;;6237517;28;20526;-69
2023/07/15 16:52:12;;;;;;;2.10;1.70;;;;;;;;;;6227285;28;20303;-68
2023/07/15 16:55:13;;;;;;;2.08;1.95;;;;;;;;;;6239011;28;20284;-68
2023/07/15 16:58:13;;;;;;;3.70;2.00;;;;;;;;;;6237559;28;20079;-70
2023/07/15 17:01:13;;;;;;;2.77;2.23;;;;;;;;;;6232912;28;20021;-69
2023/07/15 17:04:13;;;;;;;4.13;2.20;;;;;;;;;;6233054;28;20025;-71
2023/07/15 17:07:14;;;;;;;2.70;2.13;;;;;;;;;;6239336;28;20424;-70
2023/07/15 17:10:14;;;;;;;2.50;2.10;;;;;;;;;;6234321;28;20077;-70
2023/07/15 17:13:14;;;;;;;2.70;1.90;;;;;;;;;;6223301;28;20284;-73
2023/07/15 17:16:14;;;;;;;1.97;1.87;;;;;;;;;;6226233;28;20824;-69
2023/07/15 17:19:14;;;;;;;2.20;2.00;;;;;;;;;;6223923;28;20292;-69
2023/07/15 17:22:17;;;;;;;2.27;2.00;;;;;;;;;;6227109;28;20272;-69
2023/07/15 17:25:17;;;;;;;2.22;2.00;;;;;;;;;;6224973;28;20025;-69
2023/07/15 17:28:18;;;;;;;2.70;2.10;;;;;;;;;;6232036;28;20017;-68
2023/07/15 17:31:18;;;;;;;2.10;1.70;;;;;;;;;;6244060;28;20048;-69
2023/07/15 17:34:18;;;;;;;1.83;1.70;;;;;;;;;;6243054;28;20083;-69
2023/07/15 17:37:19;;;;;;;3.05;1.90;;;;;;;;;;6235762;28;20374;-69
2023/07/15 17:40:22;;;;;;;4.20;2.00;;;;;;;;;;6237370;28;20028;-69
2023/07/15 17:43:22;;;;;;;2.35;2.13;;;;;;;;;;6227687;28;20483;-69
2023/07/15 17:46:22;;;;;;;4.43;2.23;;;;;;;;;;6223916;28;20029;-69
2023/07/15 17:49:23;;;;;;;2.35;2.08;;;;;;;;;;6227123;28;20103;-68
2023/07/15 17:52:24;;;;;;;2.30;1.90;;;;;;;;;;6225928;28;20026;-69
2023/07/15 17:55:24;;;;;;;2.15;1.95;;;;;;;;;;6225931;28;20310;-69
2023/07/15 17:58:24;;;;;;;2.17;1.70;;;;;;;;;;6227645;28;20025;-69
2023/07/15 18:01:24;;;;;;;3.97;1.93;;;;;;;;;;6232971;28;20386;-70
2023/07/15 18:04:25;;;;;;;2.35;1.90;;;;;;;;;;5539482;28;10000737;-69
2023/07/15 18:07:25;;;;;;;2.63;1.80;;;;;;;;;;6232020;28;20017;-69
2023/07/15 18:10:25;;;;;;;2.27;2.00;;;;;;;;;;6236099;28;20653;-70